sensor_id;sensor_type;location;lat;lon;timestamp;P1;durP1;ratioP1;P2;durP2;ratioP2
9186;SDS011;7273;48.902;9.410;2022-12-13T00:01:10;49.28;;;31.13;;
9186;SDS011;7273;48.902;9.410;2022-12-13T00:03:37;51.03;;;33.30;;
9186;SDS011;7273;48.902;9.410;2022-12-13T00:06:03;57.33;;;34.42;;
9186;SDS011;7273;48.902;9.410;2022-12-13T00:08:33;54.78;;;34.50;;
9186;SDS011;7273;48.902;9.410;2022-12-13T00:10:59;48.08;;;30.80;;
9186;SDS011;7273;48.902;9.410;2022-12-13T00:13:26;53.97;;;34.38;;
9186;SDS011;7273;48.902;9.410;2022-12-13T00:15:56;53.15;;;33.60;;
9186;SDS011;7273;48.902;9.410;2022-12-13T00:18:23;55.85;;;33.10;;
9186;SDS011;7273;48.902;9.410;2022-12-13T00:20:49;54.28;;;33.03;;
9186;SDS011;7273;48.902;9.410;2022-12-13T00:23:15;46.25;;;30.23;;
9186;SDS011;7273;48.902;9.410;2022-12-13T00:25:40;47.35;;;30.58;;
9186;SDS011;7273;48.902;9.410;2022-12-13T00:28:06;47.33;;;32.00;;
9186;SDS011;7273;48.902;9.410;2022-12-13T00:30:32;51.63;;;30.92;;
9186;SDS011;7273;48.902;9.410;2022-12-13T00:32:59;50.78;;;32.20;;
9186;SDS011;7273;48.902;9.410;2022-12-13T00:35:24;51.78;;;33.00;;
9186;SDS011;7273;48.902;9.410;2022-12-13T00:37:49;50.10;;;29.98;;
9186;SDS011;7273;48.902;9.410;2022-12-13T00:40:15;48.15;;;31.75;;
9186;SDS011;7273;48.902;9.410;2022-12-13T00:42:40;50.95;;;32.50;;
9186;SDS011;7273;48.902;9.410;2022-12-13T00:45:06;51.60;;;31.85;;
9186;SDS011;7273;48.902;9.410;2022-12-13T00:47:33;55.47;;;33.95;;
9186;SDS011;7273;48.902;9.410;2022-12-13T00:49:59;51.58;;;32.60;;
9186;SDS011;7273;48.902;9.410;2022-12-13T00:52:24;56.33;;;34.42;;
9186;SDS011;7273;48.902;9.410;2022-12-13T00:54:50;48.80;;;30.70;;
9186;SDS011;7273;48.902;9.410;2022-12-13T00:57:15;48.38;;;30.85;;
9186;SDS011;7273;48.902;9.410;2022-12-13T00:59:40;53.53;;;34.13;;
9186;SDS011;7273;48.902;9.410;2022-12-13T01:02:06;52.23;;;32.27;;
9186;SDS011;7273;48.902;9.410;2022-12-13T01:04:31;52.83;;;33.40;;
9186;SDS011;7273;48.902;9.410;2022-12-13T01:06:57;52.53;;;32.22;;
9186;SDS011;7273;48.902;9.410;2022-12-13T01:09:23;56.45;;;33.30;;
9186;SDS011;7273;48.902;9.410;2022-12-13T01:11:55;61.75;;;35.05;;
9186;SDS011;7273;48.902;9.410;2022-12-13T01:14:25;57.80;;;33.45;;
9186;SDS011;7273;48.902;9.410;2022-12-13T01:16:50;56.78;;;33.60;;
9186;SDS011;7273;48.902;9.410;2022-12-13T01:19:19;61.38;;;36.28;;
9186;SDS011;7273;48.902;9.410;2022-12-13T01:21:48;59.13;;;35.28;;
9186;SDS011;7273;48.902;9.410;2022-12-13T01:24:14;55.90;;;33.42;;
9186;SDS011;7273;48.902;9.410;2022-12-13T01:26:39;58.03;;;34.35;;
9186;SDS011;7273;48.902;9.410;2022-12-13T01:29:05;56.10;;;33.17;;
9186;SDS011;7273;48.902;9.410;2022-12-13T01:31:30;59.00;;;34.42;;
9186;SDS011;7273;48.902;9.410;2022-12-13T01:33:56;56.88;;;33.75;;
9186;SDS011;7273;48.902;9.410;2022-12-13T01:36:22;58.00;;;34.65;;
9186;SDS011;7273;48.902;9.410;2022-12-13T01:38:48;54.58;;;33.72;;
9186;SDS011;7273;48.902;9.410;2022-12-13T01:41:17;54.83;;;33.08;;
9186;SDS011;7273;48.902;9.410;2022-12-13T01:46:10;52.72;;;32.28;;
9186;SDS011;7273;48.902;9.410;2022-12-13T01:48:41;70.88;;;32.88;;
9186;SDS011;7273;48.902;9.410;2022-12-13T01:51:11;48.95;;;30.88;;
9186;SDS011;7273;48.902;9.410;2022-12-13T01:53:42;49.58;;;31.58;;
9186;SDS011;7273;48.902;9.410;2022-12-13T01:56:11;45.67;;;30.10;;
9186;SDS011;7273;48.902;9.410;2022-12-13T01:58:42;48.25;;;32.28;;
9186;SDS011;7273;48.902;9.410;2022-12-13T02:01:09;49.28;;;31.55;;
9186;SDS011;7273;48.902;9.410;2022-12-13T02:03:35;54.10;;;31.85;;
9186;SDS011;7273;48.902;9.410;2022-12-13T02:08:39;45.35;;;29.90;;
9186;SDS011;7273;48.902;9.410;2022-12-13T02:11:06;45.88;;;29.85;;
9186;SDS011;7273;48.902;9.410;2022-12-13T02:13:33;40.22;;;28.25;;
9186;SDS011;7273;48.902;9.410;2022-12-13T02:24:18;27.30;;;22.70;;
9186;SDS011;7273;48.902;9.410;2022-12-13T02:32:42;39.35;;;27.98;;
9186;SDS011;7273;48.902;9.410;2022-12-13T02:35:26;40.63;;;28.35;;
9186;SDS011;7273;48.902;9.410;2022-12-13T02:41:05;55.75;;;31.75;;
9186;SDS011;7273;48.902;9.410;2022-12-13T02:46:57;39.75;;;27.60;;
9186;SDS011;7273;48.902;9.410;2022-12-13T02:49:45;40.42;;;27.30;;
9186;SDS011;7273;48.902;9.410;2022-12-13T02:52:14;38.22;;;28.60;;
9186;SDS011;7273;48.902;9.410;2022-12-13T02:54:43;33.70;;;25.80;;
9186;SDS011;7273;48.902;9.410;2022-12-13T02:59:54;47.25;;;30.00;;
9186;SDS011;7273;48.902;9.410;2022-12-13T03:02:23;35.25;;;26.35;;
9186;SDS011;7273;48.902;9.410;2022-12-13T03:07:53;42.35;;;28.75;;
9186;SDS011;7273;48.902;9.410;2022-12-13T03:10:28;41.30;;;28.50;;
9186;SDS011;7273;48.902;9.410;2022-12-13T03:13:02;38.50;;;27.27;;
9186;SDS011;7273;48.902;9.410;2022-12-13T03:15:55;41.58;;;29.10;;
9186;SDS011;7273;48.902;9.410;2022-12-13T03:18:22;39.13;;;27.65;;
9186;SDS011;7273;48.902;9.410;2022-12-13T03:23:18;51.30;;;31.95;;
9186;SDS011;7273;48.902;9.410;2022-12-13T03:25:45;51.20;;;31.40;;
9186;SDS011;7273;48.902;9.410;2022-12-13T03:28:14;47.00;;;30.20;;
9186;SDS011;7273;48.902;9.410;2022-12-13T03:30:40;40.22;;;28.20;;
9186;SDS011;7273;48.902;9.410;2022-12-13T03:33:05;40.83;;;28.70;;
9186;SDS011;7273;48.902;9.410;2022-12-13T03:35:31;44.10;;;30.52;;
9186;SDS011;7273;48.902;9.410;2022-12-13T03:37:57;44.95;;;30.00;;
9186;SDS011;7273;48.902;9.410;2022-12-13T03:40:26;46.25;;;30.30;;
9186;SDS011;7273;48.902;9.410;2022-12-13T03:42:54;55.00;;;34.95;;
9186;SDS011;7273;48.902;9.410;2022-12-13T03:45:20;52.53;;;33.28;;
9186;SDS011;7273;48.902;9.410;2022-12-13T03:47:46;53.38;;;32.25;;
9186;SDS011;7273;48.902;9.410;2022-12-13T03:50:11;54.17;;;32.40;;
9186;SDS011;7273;48.902;9.410;2022-12-13T03:52:37;53.95;;;32.35;;
9186;SDS011;7273;48.902;9.410;2022-12-13T03:55:03;57.25;;;33.50;;
9186;SDS011;7273;48.902;9.410;2022-12-13T03:57:28;57.03;;;33.25;;
9186;SDS011;7273;48.902;9.410;2022-12-13T03:59:54;56.38;;;33.45;;
9186;SDS011;7273;48.902;9.410;2022-12-13T04:02:19;56.83;;;33.15;;
9186;SDS011;7273;48.902;9.410;2022-12-13T04:04:45;57.63;;;33.78;;
9186;SDS011;7273;48.902;9.410;2022-12-13T04:07:10;56.97;;;34.65;;
9186;SDS011;7273;48.902;9.410;2022-12-13T04:09:36;53.92;;;33.03;;
9186;SDS011;7273;48.902;9.410;2022-12-13T04:12:01;52.00;;;32.20;;
9186;SDS011;7273;48.902;9.410;2022-12-13T04:14:46;54.00;;;31.95;;
9186;SDS011;7273;48.902;9.410;2022-12-13T04:17:11;45.23;;;29.70;;
9186;SDS011;7273;48.902;9.410;2022-12-13T04:19:36;50.03;;;31.27;;
9186;SDS011;7273;48.902;9.410;2022-12-13T04:22:02;50.08;;;31.05;;
9186;SDS011;7273;48.902;9.410;2022-12-13T04:24:27;47.72;;;31.10;;
9186;SDS011;7273;48.902;9.410;2022-12-13T04:26:53;49.70;;;31.60;;
9186;SDS011;7273;48.902;9.410;2022-12-13T04:29:18;48.03;;;30.40;;
9186;SDS011;7273;48.902;9.410;2022-12-13T04:31:44;43.22;;;30.08;;
9186;SDS011;7273;48.902;9.410;2022-12-13T04:34:09;40.27;;;28.10;;
9186;SDS011;7273;48.902;9.410;2022-12-13T04:36:34;39.42;;;27.70;;
9186;SDS011;7273;48.902;9.410;2022-12-13T04:39:00;42.83;;;29.42;;
9186;SDS011;7273;48.902;9.410;2022-12-13T04:41:27;43.95;;;29.25;;
9186;SDS011;7273;48.902;9.410;2022-12-13T04:43:53;37.75;;;27.63;;
9186;SDS011;7273;48.902;9.410;2022-12-13T04:46:19;38.97;;;27.63;;
9186;SDS011;7273;48.902;9.410;2022-12-13T04:48:45;43.80;;;29.67;;
9186;SDS011;7273;48.902;9.410;2022-12-13T04:51:11;42.05;;;28.35;;
9186;SDS011;7273;48.902;9.410;2022-12-13T04:53:37;42.50;;;28.85;;
9186;SDS011;7273;48.902;9.410;2022-12-13T04:56:03;46.75;;;30.75;;
9186;SDS011;7273;48.902;9.410;2022-12-13T04:58:29;51.70;;;30.38;;
9186;SDS011;7273;48.902;9.410;2022-12-13T05:00:54;49.50;;;32.03;;
9186;SDS011;7273;48.902;9.410;2022-12-13T05:03:20;50.28;;;31.80;;
9186;SDS011;7273;48.902;9.410;2022-12-13T05:05:46;50.10;;;31.65;;
9186;SDS011;7273;48.902;9.410;2022-12-13T05:08:11;50.43;;;31.70;;
9186;SDS011;7273;48.902;9.410;2022-12-13T05:10:37;51.67;;;31.65;;
9186;SDS011;7273;48.902;9.410;2022-12-13T05:13:03;55.40;;;33.03;;
9186;SDS011;7273;48.902;9.410;2022-12-13T05:15:29;54.25;;;32.63;;
9186;SDS011;7273;48.902;9.410;2022-12-13T05:18:04;59.72;;;34.00;;
9186;SDS011;7273;48.902;9.410;2022-12-13T05:20:30;53.65;;;32.13;;
9186;SDS011;7273;48.902;9.410;2022-12-13T05:22:58;56.35;;;33.17;;
9186;SDS011;7273;48.902;9.410;2022-12-13T05:25:23;58.00;;;33.60;;
9186;SDS011;7273;48.902;9.410;2022-12-13T05:27:49;53.05;;;32.25;;
9186;SDS011;7273;48.902;9.410;2022-12-13T05:30:15;55.30;;;32.78;;
9186;SDS011;7273;48.902;9.410;2022-12-13T05:32:41;52.92;;;32.25;;
9186;SDS011;7273;48.902;9.410;2022-12-13T05:35:06;53.75;;;31.73;;
9186;SDS011;7273;48.902;9.410;2022-12-13T05:37:32;44.20;;;29.83;;
9186;SDS011;7273;48.902;9.410;2022-12-13T05:39:57;47.90;;;30.73;;
9186;SDS011;7273;48.902;9.410;2022-12-13T05:42:23;43.88;;;29.20;;
9186;SDS011;7273;48.902;9.410;2022-12-13T05:44:50;40.75;;;28.40;;
9186;SDS011;7273;48.902;9.410;2022-12-13T05:47:16;35.67;;;26.70;;
9186;SDS011;7273;48.902;9.410;2022-12-13T05:49:41;39.20;;;27.77;;
9186;SDS011;7273;48.902;9.410;2022-12-13T05:52:14;35.20;;;28.03;;
9186;SDS011;7273;48.902;9.410;2022-12-13T05:54:43;32.75;;;25.45;;
9186;SDS011;7273;48.902;9.410;2022-12-13T05:57:09;32.63;;;25.77;;
9186;SDS011;7273;48.902;9.410;2022-12-13T05:59:34;32.35;;;25.25;;
9186;SDS011;7273;48.902;9.410;2022-12-13T06:01:59;31.90;;;24.93;;
9186;SDS011;7273;48.902;9.410;2022-12-13T06:04:25;32.97;;;25.38;;
9186;SDS011;7273;48.902;9.410;2022-12-13T06:06:50;32.83;;;25.60;;
9186;SDS011;7273;48.902;9.410;2022-12-13T06:09:16;30.90;;;24.42;;
9186;SDS011;7273;48.902;9.410;2022-12-13T06:11:42;33.50;;;26.25;;
9186;SDS011;7273;48.902;9.410;2022-12-13T06:14:07;36.90;;;27.67;;
9186;SDS011;7273;48.902;9.410;2022-12-13T06:16:33;37.47;;;26.80;;
9186;SDS011;7273;48.902;9.410;2022-12-13T06:18:58;43.55;;;29.17;;
9186;SDS011;7273;48.902;9.410;2022-12-13T06:21:23;45.65;;;30.17;;
9186;SDS011;7273;48.902;9.410;2022-12-13T06:23:49;45.35;;;30.13;;
9186;SDS011;7273;48.902;9.410;2022-12-13T06:26:14;48.70;;;30.57;;
9186;SDS011;7273;48.902;9.410;2022-12-13T06:28:40;52.47;;;32.55;;
9186;SDS011;7273;48.902;9.410;2022-12-13T06:31:05;53.95;;;33.30;;
9186;SDS011;7273;48.902;9.410;2022-12-13T06:33:31;57.72;;;33.28;;
9186;SDS011;7273;48.902;9.410;2022-12-13T06:36:00;55.38;;;32.70;;
9186;SDS011;7273;48.902;9.410;2022-12-13T06:38:26;58.88;;;33.95;;
9186;SDS011;7273;48.902;9.410;2022-12-13T06:40:52;55.53;;;32.95;;
9186;SDS011;7273;48.902;9.410;2022-12-13T06:43:18;55.67;;;33.00;;
9186;SDS011;7273;48.902;9.410;2022-12-13T06:45:44;64.80;;;34.38;;
9186;SDS011;7273;48.902;9.410;2022-12-13T06:48:09;60.20;;;33.47;;
9186;SDS011;7273;48.902;9.410;2022-12-13T06:50:36;64.22;;;36.42;;
9186;SDS011;7273;48.902;9.410;2022-12-13T06:53:02;62.35;;;35.60;;
9186;SDS011;7273;48.902;9.410;2022-12-13T06:55:27;62.55;;;35.28;;
9186;SDS011;7273;48.902;9.410;2022-12-13T06:57:53;61.08;;;35.40;;
9186;SDS011;7273;48.902;9.410;2022-12-13T07:00:18;61.65;;;35.45;;
9186;SDS011;7273;48.902;9.410;2022-12-13T07:02:50;64.50;;;35.92;;
9186;SDS011;7273;48.902;9.410;2022-12-13T07:05:16;63.42;;;35.95;;
9186;SDS011;7273;48.902;9.410;2022-12-13T07:07:41;69.32;;;36.45;;
9186;SDS011;7273;48.902;9.410;2022-12-13T07:10:07;68.40;;;38.00;;
9186;SDS011;7273;48.902;9.410;2022-12-13T07:12:33;63.22;;;35.72;;
9186;SDS011;7273;48.902;9.410;2022-12-13T07:14:58;61.78;;;35.72;;
9186;SDS011;7273;48.902;9.410;2022-12-13T07:17:24;62.13;;;34.92;;
9186;SDS011;7273;48.902;9.410;2022-12-13T07:19:49;62.22;;;35.53;;
9186;SDS011;7273;48.902;9.410;2022-12-13T07:22:15;60.60;;;34.20;;
9186;SDS011;7273;48.902;9.410;2022-12-13T07:24:40;62.07;;;35.27;;
9186;SDS011;7273;48.902;9.410;2022-12-13T07:27:06;58.67;;;34.22;;
9186;SDS011;7273;48.902;9.410;2022-12-13T07:29:31;59.13;;;33.97;;
9186;SDS011;7273;48.902;9.410;2022-12-13T07:31:56;59.25;;;33.90;;
9186;SDS011;7273;48.902;9.410;2022-12-13T07:34:23;64.35;;;34.55;;
9186;SDS011;7273;48.902;9.410;2022-12-13T07:36:48;54.80;;;33.42;;
9186;SDS011;7273;48.902;9.410;2022-12-13T07:39:15;56.45;;;33.40;;
9186;SDS011;7273;48.902;9.410;2022-12-13T07:41:40;50.58;;;31.52;;
9186;SDS011;7273;48.902;9.410;2022-12-13T07:44:05;50.30;;;31.43;;
9186;SDS011;7273;48.902;9.410;2022-12-13T07:46:31;48.08;;;31.00;;
9186;SDS011;7273;48.902;9.410;2022-12-13T07:48:56;51.55;;;31.75;;
9186;SDS011;7273;48.902;9.410;2022-12-13T07:51:22;56.60;;;34.07;;
9186;SDS011;7273;48.902;9.410;2022-12-13T07:53:47;63.83;;;33.88;;
9186;SDS011;7273;48.902;9.410;2022-12-13T07:56:12;57.70;;;33.60;;
9186;SDS011;7273;48.902;9.410;2022-12-13T07:58:38;7.23;;;6.60;;
9186;SDS011;7273;48.902;9.410;2022-12-13T08:01:06;6.60;;;5.97;;
9186;SDS011;7273;48.902;9.410;2022-12-13T08:03:33;7.22;;;6.63;;
9186;SDS011;7273;48.902;9.410;2022-12-13T08:06:03;10.00;;;9.20;;
9186;SDS011;7273;48.902;9.410;2022-12-13T08:08:31;14.98;;;13.70;;
9186;SDS011;7273;48.902;9.410;2022-12-13T08:11:01;47.80;;;28.45;;
9186;SDS011;7273;48.902;9.410;2022-12-13T08:13:32;17.48;;;15.93;;
9186;SDS011;7273;48.902;9.410;2022-12-13T08:16:00;51.67;;;31.27;;
9186;SDS011;7273;48.902;9.410;2022-12-13T08:18:27;50.58;;;31.40;;
9186;SDS011;7273;48.902;9.410;2022-12-13T08:20:57;57.88;;;33.03;;
9186;SDS011;7273;48.902;9.410;2022-12-13T08:23:23;54.25;;;32.60;;
9186;SDS011;7273;48.902;9.410;2022-12-13T08:25:50;61.05;;;35.80;;
9186;SDS011;7273;48.902;9.410;2022-12-13T08:28:19;35.38;;;25.15;;
9186;SDS011;7273;48.902;9.410;2022-12-13T08:30:46;40.85;;;27.38;;
9186;SDS011;7273;48.902;9.410;2022-12-13T08:33:12;29.92;;;23.58;;
9186;SDS011;7273;48.902;9.410;2022-12-13T08:35:38;28.55;;;17.15;;
9186;SDS011;7273;48.902;9.410;2022-12-13T08:38:04;18.92;;;17.13;;
9186;SDS011;7273;48.902;9.410;2022-12-13T08:40:29;13.20;;;12.10;;
9186;SDS011;7273;48.902;9.410;2022-12-13T08:42:55;11.90;;;10.80;;
9186;SDS011;7273;48.902;9.410;2022-12-13T08:45:20;7.32;;;6.75;;
9186;SDS011;7273;48.902;9.410;2022-12-13T08:47:47;9.25;;;8.43;;
9186;SDS011;7273;48.902;9.410;2022-12-13T08:50:13;8.57;;;6.25;;
9186;SDS011;7273;48.902;9.410;2022-12-13T08:52:39;8.35;;;7.65;;
9186;SDS011;7273;48.902;9.410;2022-12-13T08:55:04;11.70;;;10.68;;
9186;SDS011;7273;48.902;9.410;2022-12-13T08:57:30;10.55;;;9.75;;
9186;SDS011;7273;48.902;9.410;2022-12-13T08:59:55;9.95;;;9.15;;
9186;SDS011;7273;48.902;9.410;2022-12-13T09:02:21;2.28;;;2.08;;
9186;SDS011;7273;48.902;9.410;2022-12-13T09:04:46;3.50;;;2.13;;
9186;SDS011;7273;48.902;9.410;2022-12-13T09:07:12;1.48;;;0.98;;
9186;SDS011;7273;48.902;9.410;2022-12-13T09:09:37;1.25;;;1.15;;
9186;SDS011;7273;48.902;9.410;2022-12-13T09:12:03;3.28;;;2.40;;
9186;SDS011;7273;48.902;9.410;2022-12-13T09:14:29;2.75;;;1.23;;
9186;SDS011;7273;48.902;9.410;2022-12-13T09:16:55;4.80;;;1.77;;
9186;SDS011;7273;48.902;9.410;2022-12-13T09:19:20;6.82;;;1.42;;
9186;SDS011;7273;48.902;9.410;2022-12-13T09:21:46;3.28;;;2.10;;
9186;SDS011;7273;48.902;9.410;2022-12-13T09:24:11;1.67;;;1.15;;
9186;SDS011;7273;48.902;9.410;2022-12-13T09:26:36;3.42;;;2.03;;
9186;SDS011;7273;48.902;9.410;2022-12-13T09:29:02;1.58;;;0.95;;
9186;SDS011;7273;48.902;9.410;2022-12-13T09:31:27;2.85;;;0.93;;
9186;SDS011;7273;48.902;9.410;2022-12-13T09:33:53;3.22;;;1.95;;
9186;SDS011;7273;48.902;9.410;2022-12-13T09:36:19;1.55;;;1.45;;
9186;SDS011;7273;48.902;9.410;2022-12-13T09:38:45;0.85;;;0.63;;
9186;SDS011;7273;48.902;9.410;2022-12-13T09:43:43;3.17;;;1.70;;
9186;SDS011;7273;48.902;9.410;2022-12-13T09:46:33;2.05;;;1.15;;
9186;SDS011;7273;48.902;9.410;2022-12-13T09:51:26;2.88;;;1.70;;
9186;SDS011;7273;48.902;9.410;2022-12-13T09:53:52;1.95;;;1.42;;
9186;SDS011;7273;48.902;9.410;2022-12-13T09:56:18;5.22;;;1.63;;
9186;SDS011;7273;48.902;9.410;2022-12-13T09:58:49;1.25;;;0.85;;
9186;SDS011;7273;48.902;9.410;2022-12-13T10:01:20;1.40;;;1.00;;
9186;SDS011;7273;48.902;9.410;2022-12-13T10:03:49;1.48;;;1.27;;
9186;SDS011;7273;48.902;9.410;2022-12-13T10:08:49;2.35;;;1.90;;
9186;SDS011;7273;48.902;9.410;2022-12-13T10:11:17;3.05;;;1.60;;
9186;SDS011;7273;48.902;9.410;2022-12-13T10:19:16;1.70;;;1.02;;
9186;SDS011;7273;48.902;9.410;2022-12-13T10:21:47;0.98;;;0.47;;
9186;SDS011;7273;48.902;9.410;2022-12-13T10:26:43;2.70;;;1.80;;
9186;SDS011;7273;48.902;9.410;2022-12-13T10:29:09;4.15;;;1.38;;
9186;SDS011;7273;48.902;9.410;2022-12-13T10:31:42;1.02;;;0.55;;
9186;SDS011;7273;48.902;9.410;2022-12-13T10:34:28;2.17;;;1.83;;
9186;SDS011;7273;48.902;9.410;2022-12-13T10:37:02;4.07;;;1.52;;
9186;SDS011;7273;48.902;9.410;2022-12-13T10:39:50;3.55;;;2.28;;
9186;SDS011;7273;48.902;9.410;2022-12-13T10:42:17;3.22;;;1.70;;
9186;SDS011;7273;48.902;9.410;2022-12-13T10:49:55;2.20;;;1.17;;
9186;SDS011;7273;48.902;9.410;2022-12-13T10:54:52;2.65;;;1.08;;
9186;SDS011;7273;48.902;9.410;2022-12-13T10:57:18;2.22;;;1.25;;
9186;SDS011;7273;48.902;9.410;2022-12-13T10:59:45;1.92;;;1.35;;
9186;SDS011;7273;48.902;9.410;2022-12-13T11:02:29;1.75;;;0.75;;
9186;SDS011;7273;48.902;9.410;2022-12-13T11:04:55;1.23;;;0.80;;
9186;SDS011;7273;48.902;9.410;2022-12-13T11:09:50;5.88;;;2.90;;
9186;SDS011;7273;48.902;9.410;2022-12-13T11:12:17;2.03;;;1.85;;
9186;SDS011;7273;48.902;9.410;2022-12-13T11:14:52;8.55;;;5.63;;
9186;SDS011;7273;48.902;9.410;2022-12-13T11:17:21;6.75;;;6.03;;
9186;SDS011;7273;48.902;9.410;2022-12-13T11:20:14;6.18;;;5.00;;
9186;SDS011;7273;48.902;9.410;2022-12-13T11:22:45;9.10;;;8.30;;
9186;SDS011;7273;48.902;9.410;2022-12-13T11:25:24;8.65;;;7.90;;
9186;SDS011;7273;48.902;9.410;2022-12-13T11:43:54;8.93;;;6.95;;
9186;SDS011;7273;48.902;9.410;2022-12-13T11:46:33;5.50;;;4.78;;
9186;SDS011;7273;48.902;9.410;2022-12-13T11:48:59;4.68;;;4.00;;
9186;SDS011;7273;48.902;9.410;2022-12-13T11:52:11;3.72;;;3.42;;
9186;SDS011;7273;48.902;9.410;2022-12-13T11:54:48;5.15;;;4.47;;
9186;SDS011;7273;48.902;9.410;2022-12-13T11:57:32;6.75;;;6.10;;
9186;SDS011;7273;48.902;9.410;2022-12-13T12:00:03;3.50;;;3.13;;
9186;SDS011;7273;48.902;9.410;2022-12-13T12:02:37;5.43;;;4.70;;
9186;SDS011;7273;48.902;9.410;2022-12-13T12:05:13;7.55;;;4.55;;
9186;SDS011;7273;48.902;9.410;2022-12-13T12:07:48;5.68;;;2.78;;
9186;SDS011;7273;48.902;9.410;2022-12-13T12:15:43;2.75;;;2.15;;
9186;SDS011;7273;48.902;9.410;2022-12-13T12:18:30;3.42;;;3.13;;
9186;SDS011;7273;48.902;9.410;2022-12-13T12:21:03;2.92;;;1.92;;
9186;SDS011;7273;48.902;9.410;2022-12-13T12:23:42;2.47;;;1.52;;
9186;SDS011;7273;48.902;9.410;2022-12-13T12:26:15;4.13;;;3.03;;
9186;SDS011;7273;48.902;9.410;2022-12-13T12:31:30;1.45;;;1.33;;
9186;SDS011;7273;48.902;9.410;2022-12-13T12:39:32;2.13;;;1.67;;
9186;SDS011;7273;48.902;9.410;2022-12-13T12:45:13;4.93;;;2.72;;
9186;SDS011;7273;48.902;9.410;2022-12-13T12:47:52;3.80;;;2.05;;
9186;SDS011;7273;48.902;9.410;2022-12-13T12:51:08;1.95;;;1.58;;
9186;SDS011;7273;48.902;9.410;2022-12-13T12:53:53;3.35;;;2.40;;
9186;SDS011;7273;48.902;9.410;2022-12-13T12:59:01;3.40;;;2.10;;
9186;SDS011;7273;48.902;9.410;2022-12-13T13:04:29;6.70;;;2.85;;
9186;SDS011;7273;48.902;9.410;2022-12-13T13:07:01;3.33;;;1.48;;
9186;SDS011;7273;48.902;9.410;2022-12-13T13:09:32;2.00;;;1.63;;
9186;SDS011;7273;48.902;9.410;2022-12-13T13:12:01;4.10;;;2.35;;
9186;SDS011;7273;48.902;9.410;2022-12-13T13:14:30;3.65;;;2.28;;
9186;SDS011;7273;48.902;9.410;2022-12-13T13:19:52;5.47;;;3.05;;
9186;SDS011;7273;48.902;9.410;2022-12-13T13:22:35;3.95;;;2.00;;
9186;SDS011;7273;48.902;9.410;2022-12-13T13:27:30;2.15;;;1.13;;
9186;SDS011;7273;48.902;9.410;2022-12-13T13:30:06;3.25;;;1.63;;
9186;SDS011;7273;48.902;9.410;2022-12-13T13:32:41;3.08;;;1.45;;
9186;SDS011;7273;48.902;9.410;2022-12-13T13:40:40;2.80;;;1.55;;
9186;SDS011;7273;48.902;9.410;2022-12-13T14:02:42;0.65;;;0.63;;
9186;SDS011;7273;48.902;9.410;2022-12-13T14:05:16;5.18;;;2.30;;
9186;SDS011;7273;48.902;9.410;2022-12-13T14:11:02;0.63;;;0.47;;
9186;SDS011;7273;48.902;9.410;2022-12-13T14:13:58;2.53;;;0.90;;
9186;SDS011;7273;48.902;9.410;2022-12-13T14:24:52;2.13;;;1.23;;
9186;SDS011;7273;48.902;9.410;2022-12-13T14:30:04;3.95;;;1.90;;
9186;SDS011;7273;48.902;9.410;2022-12-13T14:32:30;2.50;;;2.13;;
9186;SDS011;7273;48.902;9.410;2022-12-13T14:35:01;2.47;;;1.10;;
9186;SDS011;7273;48.902;9.410;2022-12-13T14:37:34;1.75;;;0.82;;
9186;SDS011;7273;48.902;9.410;2022-12-13T14:40:26;3.03;;;1.20;;
9186;SDS011;7273;48.902;9.410;2022-12-13T14:42:51;1.02;;;0.68;;
9186;SDS011;7273;48.902;9.410;2022-12-13T14:45:23;1.65;;;0.80;;
9186;SDS011;7273;48.902;9.410;2022-12-13T14:47:53;1.13;;;0.50;;
9186;SDS011;7273;48.902;9.410;2022-12-13T14:50:27;1.83;;;0.98;;
9186;SDS011;7273;48.902;9.410;2022-12-13T14:52:55;2.72;;;1.27;;
9186;SDS011;7273;48.902;9.410;2022-12-13T14:57:53;4.70;;;2.03;;
9186;SDS011;7273;48.902;9.410;2022-12-13T15:00:25;3.80;;;0.93;;
9186;SDS011;7273;48.902;9.410;2022-12-13T15:02:57;2.03;;;0.75;;
9186;SDS011;7273;48.902;9.410;2022-12-13T15:07:52;1.67;;;0.93;;
9186;SDS011;7273;48.902;9.410;2022-12-13T15:10:20;3.42;;;1.17;;
9186;SDS011;7273;48.902;9.410;2022-12-13T15:12:47;1.65;;;1.20;;
9186;SDS011;7273;48.902;9.410;2022-12-13T15:15:28;1.83;;;1.30;;
9186;SDS011;7273;48.902;9.410;2022-12-13T15:18:29;2.45;;;1.25;;
9186;SDS011;7273;48.902;9.410;2022-12-13T15:20:49;2.10;;;1.13;;
9186;SDS011;7273;48.902;9.410;2022-12-13T15:25:45;3.17;;;1.35;;
9186;SDS011;7273;48.902;9.410;2022-12-13T15:28:14;2.25;;;1.23;;
9186;SDS011;7273;48.902;9.410;2022-12-13T15:30:41;1.25;;;0.80;;
9186;SDS011;7273;48.902;9.410;2022-12-13T15:33:21;0.98;;;0.50;;
9186;SDS011;7273;48.902;9.410;2022-12-13T15:35:49;2.30;;;1.33;;
9186;SDS011;7273;48.902;9.410;2022-12-13T15:38:27;2.80;;;1.25;;
9186;SDS011;7273;48.902;9.410;2022-12-13T15:40:52;1.42;;;0.80;;
9186;SDS011;7273;48.902;9.410;2022-12-13T15:43:19;1.80;;;1.30;;
9186;SDS011;7273;48.902;9.410;2022-12-13T15:45:50;2.80;;;1.27;;
9186;SDS011;7273;48.902;9.410;2022-12-13T15:48:25;1.80;;;1.30;;
9186;SDS011;7273;48.902;9.410;2022-12-13T15:56:34;0.65;;;0.60;;
9186;SDS011;7273;48.902;9.410;2022-12-13T15:59:02;2.75;;;1.38;;
9186;SDS011;7273;48.902;9.410;2022-12-13T16:01:30;1.27;;;0.95;;
9186;SDS011;7273;48.902;9.410;2022-12-13T16:03:58;2.17;;;1.65;;
9186;SDS011;7273;48.902;9.410;2022-12-13T16:06:27;2.90;;;2.03;;
9186;SDS011;7273;48.902;9.410;2022-12-13T16:08:56;1.35;;;0.95;;
9186;SDS011;7273;48.902;9.410;2022-12-13T16:19:33;2.65;;;1.90;;
9186;SDS011;7273;48.902;9.410;2022-12-13T16:21:58;1.52;;;1.15;;
9186;SDS011;7273;48.902;9.410;2022-12-13T16:24:24;4.95;;;2.72;;
9186;SDS011;7273;48.902;9.410;2022-12-13T16:26:49;2.13;;;1.92;;
9186;SDS011;7273;48.902;9.410;2022-12-13T16:29:15;0.75;;;0.65;;
9186;SDS011;7273;48.902;9.410;2022-12-13T16:31:45;0.60;;;0.60;;
9186;SDS011;7273;48.902;9.410;2022-12-13T16:34:11;0.50;;;0.50;;
9186;SDS011;7273;48.902;9.410;2022-12-13T16:36:37;3.08;;;2.00;;
9186;SDS011;7273;48.902;9.410;2022-12-13T16:39:03;3.50;;;2.55;;
9186;SDS011;7273;48.902;9.410;2022-12-13T16:41:33;1.23;;;1.10;;
9186;SDS011;7273;48.902;9.410;2022-12-13T16:44:00;2.08;;;1.58;;
9186;SDS011;7273;48.902;9.410;2022-12-13T16:46:27;0.90;;;0.50;;
9186;SDS011;7273;48.902;9.410;2022-12-13T16:48:53;1.98;;;1.33;;
9186;SDS011;7273;48.902;9.410;2022-12-13T16:51:19;0.73;;;0.60;;
9186;SDS011;7273;48.902;9.410;2022-12-13T16:53:45;0.88;;;0.55;;
9186;SDS011;7273;48.902;9.410;2022-12-13T16:56:11;1.35;;;1.25;;
9186;SDS011;7273;48.902;9.410;2022-12-13T16:58:40;1.75;;;0.95;;
9186;SDS011;7273;48.902;9.410;2022-12-13T17:01:09;3.08;;;1.48;;
9186;SDS011;7273;48.902;9.410;2022-12-13T17:03:36;1.40;;;0.95;;
9186;SDS011;7273;48.902;9.410;2022-12-13T17:06:02;1.15;;;1.05;;
9186;SDS011;7273;48.902;9.410;2022-12-13T17:08:28;2.47;;;1.27;;
9186;SDS011;7273;48.902;9.410;2022-12-13T17:10:55;2.10;;;1.13;;
9186;SDS011;7273;48.902;9.410;2022-12-13T17:13:20;0.85;;;0.52;;
9186;SDS011;7273;48.902;9.410;2022-12-13T17:15:45;2.10;;;1.40;;
9186;SDS011;7273;48.902;9.410;2022-12-13T17:18:11;2.63;;;1.95;;
9186;SDS011;7273;48.902;9.410;2022-12-13T17:20:36;2.78;;;1.45;;
9186;SDS011;7273;48.902;9.410;2022-12-13T17:23:02;3.80;;;2.05;;
9186;SDS011;7273;48.902;9.410;2022-12-13T17:25:29;1.52;;;1.15;;
9186;SDS011;7273;48.902;9.410;2022-12-13T17:27:54;3.08;;;2.03;;
9186;SDS011;7273;48.902;9.410;2022-12-13T17:30:20;3.05;;;2.25;;
9186;SDS011;7273;48.902;9.410;2022-12-13T17:32:47;2.63;;;1.55;;
9186;SDS011;7273;48.902;9.410;2022-12-13T17:35:13;1.52;;;1.00;;
9186;SDS011;7273;48.902;9.410;2022-12-13T17:37:39;2.03;;;1.02;;
9186;SDS011;7273;48.902;9.410;2022-12-13T17:40:04;1.63;;;1.27;;
9186;SDS011;7273;48.902;9.410;2022-12-13T17:44:59;6.18;;;5.53;;
9186;SDS011;7273;48.902;9.410;2022-12-13T17:47:25;6.18;;;3.22;;
9186;SDS011;7273;48.902;9.410;2022-12-13T17:49:51;5.90;;;3.60;;
9186;SDS011;7273;48.902;9.410;2022-12-13T17:52:16;2.58;;;2.22;;
9186;SDS011;7273;48.902;9.410;2022-12-13T17:54:41;3.05;;;2.35;;